Time;durP1;ratioP1;P1;durP2;ratioP2;P2;SDS_P1;SDS_P2;PMS_P1;PMS_P2;Temp;Humidity;BMP_temperature;BMP_pressure;BME280_temperature;BME280_humidity;BME280_pressure;Samples;Min_cycle;Max_cycle;Signal;HPM_P1;HPM_P2
2024/01/25 00:00:20;;;;;;;21.90;12.47;;;;;;;0.27;100.00;100894.34;5031700;28;20040;-71
2024/01/25 00:02:45;;;;;;;20.00;12.75;;;;;;;0.28;100.00;100906.31;5030330;28;20403;-72
2024/01/25 00:05:11;;;;;;;23.17;13.23;;;;;;;0.23;100.00;100899.94;5031479;28;20083;-73
2024/01/25 00:07:45;;;;;;;19.43;11.83;;;;;;;0.34;100.00;100898.34;5031052;28;20039;-73
2024/01/25 00:10:11;;;;;;;19.63;11.63;;;;;;;0.37;100.00;100890.06;5029442;28;20037;-74
2024/01/25 00:12:37;;;;;;;21.50;12.97;;;;;;;0.19;100.00;100869.06;5031201;28;20549;-73
2024/01/25 00:15:02;;;;;;;18.63;12.83;;;;;;;0.40;100.00;100906.47;5030977;28;20120;-77
2024/01/25 00:17:28;;;;;;;25.47;13.73;;;;;;;0.18;100.00;100862.25;5030839;28;20034;-77
2024/01/25 00:19:53;;;;;;;20.83;11.90;;;;;;;0.34;100.00;100908.50;5030902;28;20388;-76
2024/01/25 00:22:19;;;;;;;19.63;11.77;;;;;;;0.20;100.00;100893.72;5031979;28;20033;-73
2024/01/25 00:24:44;;;;;;;21.90;12.73;;;;;;;0.35;100.00;100909.38;5031039;28;20039;-73
2024/01/25 00:27:10;;;;;;;22.53;12.63;;;;;;;0.32;100.00;100889.69;5031146;28;20033;-73
2024/01/25 00:29:36;;;;;;;22.23;13.20;;;;;;;0.35;100.00;100874.72;5030990;28;20040;-73
2024/01/25 00:32:02;;;;;;;23.80;13.20;;;;;;;0.18;100.00;100844.47;5031236;28;20076;-74
2024/01/25 00:34:28;;;;;;;23.30;13.37;;;;;;;0.09;100.00;100817.53;5029373;28;20041;-76
2024/01/25 00:36:54;;;;;;;23.27;13.47;;;;;;;0.24;100.00;100847.53;5011084;28;20045;-74
2024/01/25 00:39:20;;;;;;;23.90;13.27;;;;;;;0.20;100.00;100822.63;5027195;28;20487;-73
2024/01/25 00:41:50;;;;;;;26.23;14.90;;;;;;;0.02;100.00;100824.50;5030749;28;20545;-73
2024/01/25 00:44:16;;;;;;;26.23;15.30;;;;;;;-0.06;100.00;100813.72;5031040;28;20130;-74
2024/01/25 00:46:42;;;;;;;23.87;15.60;;;;;;;0.11;100.00;100861.72;5045682;28;20045;-71
2024/01/25 00:49:08;;;;;;;25.73;14.90;;;;;;;-0.08;100.00;100838.94;5027923;28;20494;-72
2024/01/25 00:51:36;;;;;;;26.73;15.97;;;;;;;-0.02;100.00;100841.13;5030579;28;20044;-73
2024/01/25 00:54:02;;;;;;;24.53;15.07;;;;;;;-1.05;100.00;100666.69;5024090;28;20124;-74
2024/01/25 00:56:28;;;;;;;25.27;14.13;;;;;;;-0.06;100.00;100836.56;5030684;28;20116;-75
2024/01/25 00:58:54;;;;;;;25.10;14.13;;;;;;;-0.17;100.00;100818.75;5030239;28;20037;-76
2024/01/25 01:01:22;;;;;;;24.93;13.80;;;;;;;-0.55;100.00;100755.50;5031545;28;20049;-71
2024/01/25 01:03:52;;;;;;;25.83;14.20;;;;;;;-0.15;100.00;100826.47;5029706;28;20038;-76
2024/01/25 01:06:20;;;;;;;24.40;14.50;;;;;;;-0.12;100.00;100831.84;5012178;28;20049;-75
2024/01/25 01:08:46;;;;;;;22.23;15.30;;;;;;;-0.48;100.00;100763.63;5011625;28;20037;-71
2024/01/25 01:11:11;;;;;;;26.50;15.13;;;;;;;-0.52;100.00;100748.13;5030346;28;20458;-71
2024/01/25 01:13:37;;;;;;;22.63;14.33;;;;;;;-0.12;100.00;100800.50;5028348;28;20041;-74
2024/01/25 01:16:03;;;;;;;24.30;14.63;;;;;;;-0.20;100.00;100792.22;5030712;28;20408;-72
2024/01/25 01:18:28;;;;;;;23.33;13.63;;;;;;;-0.29;100.00;100771.16;5028238;28;20184;-71
2024/01/25 01:20:54;;;;;;;24.37;14.63;;;;;;;-0.37;100.00;100780.66;5029595;28;20037;-75
2024/01/25 01:23:19;;;;;;;26.13;14.57;;;;;;;-0.33;100.00;100781.03;5030970;28;20025;-70
2024/01/25 01:25:45;;;;;;;29.60;15.73;;;;;;;-0.40;100.00;100750.84;5030185;28;20488;-70
2024/01/25 01:28:10;;;;;;;22.77;15.20;;;;;;;-0.37;100.00;100780.66;5028550;28;20037;-70
2024/01/25 01:30:36;;;;;;;28.70;16.77;;;;;;;-0.29;100.00;100797.41;5028227;28;20036;-73
2024/01/25 01:33:01;;;;;;;29.10;16.80;;;;;;;-0.33;100.00;100792.84;5028658;28;20111;-70
2024/01/25 01:35:27;;;;;;;25.17;15.17;;;;;;;-0.41;100.00;100783.66;5029691;28;20033;-70
2024/01/25 01:37:52;;;;;;;31.73;14.40;;;;;;;-0.22;100.00;100807.31;5024379;28;20115;-72
2024/01/25 01:40:18;;;;;;;25.87;15.03;;;;;;;-0.32;100.00;100771.78;5024772;28;20036;-75
2024/01/25 01:42:43;;;;;;;28.00;14.60;;;;;;;-0.30;100.00;100767.72;5029356;28;20044;-74
2024/01/25 01:45:12;;;;;;;25.53;14.87;;;;;;;-0.21;100.00;100782.84;5030461;28;20414;-71
2024/01/25 01:47:38;;;;;;;22.13;14.07;;;;;;;-0.18;100.00;100799.19;5029231;28;20029;-74
2024/01/25 01:50:06;;;;;;;23.13;13.37;;;;;;;-0.14;100.00;100804.56;5029295;28;20446;-74
2024/01/25 01:52:32;;;;;;;20.80;14.07;;;;;;;-0.11;100.00;100784.50;5029288;28;20025;-74
2024/01/25 01:54:57;;;;;;;25.17;14.60;;;;;;;-0.19;100.00;100776.25;5029364;28;20396;-72
2024/01/25 01:57:23;;;;;;;22.37;13.13;;;;;;;-0.15;100.00;100785.00;5029914;28;20072;-71
2024/01/25 01:59:50;;;;;;;24.10;13.40;;;;;;;-0.24;100.00;100758.06;5028059;28;20060;-70
2024/01/25 02:02:15;;;;;;;21.03;13.33;;;;;;;-0.08;100.00;100769.53;5029479;28;20048;-77
2024/01/25 02:04:41;;;;;;;20.73;12.23;;;;;;;-0.19;100.00;100759.38;5029359;28;20029;-71
2024/01/25 02:07:07;;;;;;;19.23;12.17;;;;;;;-0.22;100.00;100745.53;5028938;28;20044;-72
2024/01/25 02:09:34;;;;;;;20.43;12.13;;;;;;;-0.14;100.00;100757.22;5029992;28;20029;-73
2024/01/25 02:12:03;;;;;;;21.60;12.90;;;;;;;-0.19;100.00;100734.00;5018535;28;20028;-71
2024/01/25 02:14:30;;;;;;;24.60;13.27;;;;;;;-0.44;100.00;100685.38;5027175;28;20029;-71
2024/01/25 02:16:56;;;;;;;21.03;12.60;;;;;;;-0.09;100.00;100750.00;5028642;28;20084;-75
2024/01/25 02:19:22;;;;;;;22.53;12.63;;;;;;;-0.14;100.00;100741.97;5027262;28;20479;-71
2024/01/25 02:21:49;;;;;;;22.03;12.90;;;;;;;-0.28;100.00;100725.59;5027798;28;20014;-78
2024/01/25 02:24:15;;;;;;;22.00;12.60;;;;;;;-0.12;100.00;100734.53;5029321;28;20026;-75
2024/01/25 02:26:40;;;;;;;21.70;12.57;;;;;;;-0.35;100.00;100703.00;5033297;28;20464;-71
2024/01/25 02:29:08;;;;;;;20.67;12.30;;;;;;;-0.29;100.00;100717.88;5033130;28;20033;-76
2024/01/25 02:31:33;;;;;;;19.60;12.20;;;;;;;-0.15;100.00;100732.59;5034204;28;20033;-70
2024/01/25 02:33:59;;;;;;;22.60;13.73;;;;;;;-0.18;100.00;100732.34;5033248;28;20511;-71
2024/01/25 02:36:24;;;;;;;19.87;12.03;;;;;;;-0.21;100.00;100740.59;5033604;28;20025;-71
2024/01/25 02:38:50;;;;;;;22.17;13.17;;;;;;;-0.39;100.00;100695.91;5033029;28;20033;-71
2024/01/25 02:41:15;;;;;;;20.53;11.97;;;;;;;-0.23;100.00;100704.03;5031824;28;20041;-72
2024/01/25 02:43:41;;;;;;;20.60;12.33;;;;;;;-0.32;100.00;100667.78;5032891;28;20034;-72
2024/01/25 02:46:08;;;;;;;19.83;12.50;;;;;;;-0.39;100.00;100662.94;5032831;28;20138;-73
2024/01/25 02:48:34;;;;;;;21.97;12.47;;;;;;;-0.35;100.00;100654.81;5030576;28;20415;-76
2024/01/25 02:51:00;;;;;;;22.37;13.50;;;;;;;-0.56;100.00;100642.13;5031701;28;20028;-76
2024/01/25 02:53:25;;;;;;;22.07;13.40;;;;;;;-0.40;100.00;100691.59;5032403;28;20030;-71
2024/01/25 02:55:51;;;;;;;19.57;12.57;;;;;;;-0.50;100.00;100695.91;5033015;28;20029;-71
2024/01/25 02:58:16;;;;;;;22.33;13.10;;;;;;;-0.53;100.00;100699.81;5029328;28;20025;-71
2024/01/25 03:00:42;;;;;;;22.67;12.57;;;;;;;-0.44;100.00;100702.25;5032647;28;20025;-71
2024/01/25 03:03:07;;;;;;;25.53;13.77;;;;;;;-0.48;100.00;100690.94;5033133;28;20400;-71
2024/01/25 03:05:34;;;;;;;22.47;13.17;;;;;;;-0.57;100.00;100669.91;5032606;28;20029;-72
2024/01/25 03:08:00;;;;;;;21.63;13.33;;;;;;;-0.42;100.00;100677.91;5032387;28;20116;-72
2024/01/25 03:10:25;;;;;;;23.50;14.33;;;;;;;-0.40;100.00;100664.59;5031049;28;20087;-71
2024/01/25 03:12:51;;;;;;;22.53;12.90;;;;;;;-0.57;100.00;100632.75;5032029;28;20029;-72
2024/01/25 03:15:16;;;;;;;19.83;12.40;;;;;;;-0.82;100.00;100629.78;5033188;28;20488;-72
2024/01/25 03:17:42;;;;;;;24.17;13.13;;;;;;;-0.69;100.00;100679.88;5031930;28;20057;-70
2024/01/25 03:20:09;;;;;;;26.00;12.87;;;;;;;-0.64;100.00;100672.66;5032895;28;20048;-71
2024/01/25 03:22:35;;;;;;;26.03;13.03;;;;;;;-0.45;100.00;100688.66;5032256;28;20021;-72
2024/01/25 03:25:01;;;;;;;24.20;13.37;;;;;;;-0.39;100.00;100680.69;5032401;28;20041;-72
2024/01/25 03:27:26;;;;;;;23.07;13.57;;;;;;;-0.52;100.00;100659.38;5031416;28;20068;-71
2024/01/25 03:29:52;;;;;;;22.00;12.90;;;;;;;-0.41;100.00;100664.44;5031703;28;20025;-72
2024/01/25 03:32:17;;;;;;;23.27;12.83;;;;;;;-0.54;100.00;100671.03;5031903;28;20067;-72
2024/01/25 03:34:43;;;;;;;23.60;13.33;;;;;;;-0.59;100.00;100654.53;5031845;28;20033;-72
2024/01/25 03:37:09;;;;;;;20.47;11.87;;;;;;;-0.43;100.00;100671.06;5032091;28;20593;-71
2024/01/25 03:39:34;;;;;;;23.87;13.00;;;;;;;-0.46;100.00;100668.25;5031694;28;20061;-71
2024/01/25 03:42:00;;;;;;;21.63;12.83;;;;;;;-0.68;100.00;100636.03;5031161;28;20427;-73
2024/01/25 03:44:25;;;;;;;21.57;12.33;;;;;;;-0.50;100.00;100670.53;5031720;28;20037;-72
2024/01/25 03:46:51;;;;;;;23.53;12.47;;;;;;;-0.52;100.00;100644.16;5031902;28;20068;-75
2024/01/25 03:49:16;;;;;;;22.47;12.83;;;;;;;-0.66;100.00;100614.22;5032197;28;20558;-71
2024/01/25 03:51:42;;;;;;;22.80;11.80;;;;;;;-0.51;100.00;100651.00;5028951;28;20053;-71
2024/01/25 03:54:08;;;;;;;21.53;12.30;;;;;;;-0.52;100.00;100628.06;5031878;28;20037;-73
2024/01/25 03:56:33;;;;;;;19.93;10.97;;;;;;;-0.77;100.00;100605.72;5031043;28;20037;-73
2024/01/25 03:58:59;;;;;;;22.73;13.63;;;;;;;-0.59;100.00;100620.69;5031360;28;20052;-71
2024/01/25 04:01:24;;;;;;;21.07;11.57;;;;;;;-0.65;100.00;100613.44;5031398;28;20052;-71
2024/01/25 04:03:50;;;;;;;19.30;11.80;;;;;;;-0.73;100.00;100617.00;5031479;28;20025;-72
2024/01/25 04:06:16;;;;;;;21.17;12.60;;;;;;;-1.11;100.00;100533.56;5030757;28;20396;-72
2024/01/25 04:08:41;;;;;;;20.97;11.97;;;;;;;-0.67;100.00;100632.72;5031064;28;20025;-75
2024/01/25 04:11:09;;;;;;;20.43;12.60;;;;;;;-0.69;100.00;100641.84;5030757;28;20523;-75
2024/01/25 04:13:35;;;;;;;23.83;13.07;;;;;;;-0.65;100.00;100648.94;5031453;28;20116;-72
2024/01/25 04:16:00;;;;;;;23.23;12.50;;;;;;;-0.86;100.00;100622.66;5032353;28;20044;-74
2024/01/25 04:18:26;;;;;;;20.70;11.87;;;;;;;-0.64;100.00;100654.91;5031416;28;20058;-78
2024/01/25 04:20:51;;;;;;;18.83;11.87;;;;;;;-0.84;100.00;100634.72;5031433;28;20044;-70
2024/01/25 04:23:17;;;;;;;20.20;11.03;;;;;;;-0.56;100.00;100671.66;5031774;28;20470;-70
2024/01/25 04:25:43;;;;;;;22.30;12.50;;;;;;;-0.85;100.00;100616.84;5030518;28;20137;-71
2024/01/25 04:28:10;;;;;;;18.93;11.20;;;;;;;-0.71;100.00;100630.69;5031160;28;20025;-72
2024/01/25 04:30:35;;;;;;;22.57;12.13;;;;;;;-0.34;100.00;100700.63;5030298;28;20033;-74
2024/01/25 04:33:02;;;;;;;19.47;11.50;;;;;;;-0.41;100.00;100677.13;5031139;28;20026;-72
2024/01/25 04:35:47;;;;;;;16.73;9.80;;;;;;;-0.50;100.00;100703.50;5030779;28;20112;-73
2024/01/25 04:38:13;;;;;;;22.70;13.20;;;;;;;-0.75;100.00;100707.25;5008760;28;20041;-72
2024/01/25 04:40:38;;;;;;;24.30;13.13;;;;;;;-0.89;100.00;100706.94;5008509;28;20101;-73
2024/01/25 04:43:04;;;;;;;23.87;14.13;;;;;;;-1.05;100.00;100671.78;5009601;28;20397;-73
2024/01/25 04:45:30;;;;;;;22.57;12.73;;;;;;;-1.02;100.00;100673.72;5008488;28;20162;-71
2024/01/25 04:47:55;;;;;;;23.97;12.13;;;;;;;-0.97;100.00;100695.25;5008433;28;20038;-72
2024/01/25 04:50:21;;;;;;;22.63;12.47;;;;;;;-1.06;100.00;100700.44;5010457;28;20026;-72
2024/01/25 04:52:47;;;;;;;23.57;13.03;;;;;;;-1.20;100.00;100681.47;5009102;28;20057;-72
2024/01/25 04:55:12;;;;;;;23.73;13.63;;;;;;;-1.22;100.00;100682.09;5007892;28;20034;-72
2024/01/25 04:57:38;;;;;;;21.63;12.10;;;;;;;-1.49;100.00;100643.47;5008484;28;20416;-73
2024/01/25 05:00:05;;;;;;;22.93;14.37;;;;;;;-1.21;100.00;100671.19;4975141;28;20064;-70
2024/01/25 05:02:30;;;;;;;23.50;13.93;;;;;;;-1.18;100.00;100691.75;5006933;28;20042;-72
2024/01/25 05:04:57;;;;;;;29.60;15.90;;;;;;;-1.33;100.00;100668.50;5003061;28;20045;-72
2024/01/25 05:07:22;;;;;;;25.10;14.07;;;;;;;-1.31;100.00;100680.53;5007176;28;20550;-71
2024/01/25 05:09:48;;;;;;;21.70;12.57;;;;;;;-1.36;100.00;100650.50;5024344;28;20065;-71
2024/01/25 05:12:13;;;;;;;25.70;15.63;;;;;;;-1.39;100.00;100678.97;5027385;28;20037;-70
2024/01/25 05:14:39;;;;;;;25.77;14.97;;;;;;;-1.42;100.00;100655.03;5029998;28;20037;-71
2024/01/25 05:17:05;;;;;;;26.33;14.83;;;;;;;-1.31;100.00;100665.34;5030066;28;20025;-76
2024/01/25 05:19:31;;;;;;;24.63;15.37;;;;;;;-1.31;100.00;100665.34;5029646;28;20064;-72
2024/01/25 05:21:56;;;;;;;23.60;13.97;;;;;;;-1.35;100.00;100655.69;5029981;28;20025;-70
2024/01/25 05:24:22;;;;;;;25.13;13.60;;;;;;;-1.60;100.00;100649.25;5029801;28;20083;-71
2024/01/25 05:26:49;;;;;;;28.00;16.50;;;;;;;-1.57;100.00;100654.56;5030286;28;20506;-70
2024/01/25 05:29:15;;;;;;;31.07;17.23;;;;;;;-1.57;100.00;100673.19;5027217;28;20022;-75
2024/01/25 05:31:41;;;;;;;30.70;18.07;;;;;;;-1.60;100.00;100682.16;5011094;28;20045;-72
2024/01/25 05:34:07;;;;;;;28.83;16.53;;;;;;;-2.12;100.00;100609.31;5030060;28;20376;-72
2024/01/25 05:36:32;;;;;;;29.03;17.57;;;;;;;-1.64;100.00;100681.00;5029741;28;20040;-72
2024/01/25 05:38:58;;;;;;;29.30;16.63;;;;;;;-1.61;100.00;100667.72;5028980;28;20056;-73
2024/01/25 05:41:23;;;;;;;31.33;17.30;;;;;;;-1.74;100.00;100665.75;5028373;28;20461;-70
2024/01/25 05:43:49;;;;;;;30.27;17.90;;;;;;;-1.76;100.00;100664.72;5029393;28;20033;-70
2024/01/25 05:46:14;;;;;;;29.87;16.70;;;;;;;-1.67;100.00;100670.56;5029652;28;20493;-71
2024/01/25 05:48:40;;;;;;;30.17;17.37;;;;;;;-1.59;100.00;100674.69;5010728;28;20048;-71
2024/01/25 05:51:05;;;;;;;27.70;17.83;;;;;;;-1.69;100.00;100639.19;5029048;28;20112;-73
2024/01/25 05:53:31;;;;;;;30.37;15.77;;;;;;;-1.52;100.00;100655.84;5024490;28;20518;-72
2024/01/25 05:55:58;;;;;;;30.63;17.03;;;;;;;-1.63;100.00;100647.34;5010657;28;20073;-71
2024/01/25 05:58:24;;;;;;;42.70;21.30;;;;;;;-2.06;100.00;100571.03;5026913;28;20044;-70
2024/01/25 06:00:50;;;;;;;29.87;17.13;;;;;;;-2.01;100.00;100577.38;5028467;28;20033;-76
2024/01/25 06:03:15;;;;;;;46.73;25.93;;;;;;;-1.75;100.00;100621.81;5027411;28;20463;-72
2024/01/25 06:06:01;;;;;;;69.83;35.73;;;;;;;-1.55;100.00;100646.34;5026217;28;20021;-73
2024/01/25 06:08:26;;;;;;;32.10;19.17;;;;;;;-1.44;100.00;100654.91;5024358;28;20072;-70
2024/01/25 06:10:52;;;;;;;36.30;21.17;;;;;;;-1.37;100.00;100653.78;5025788;28;20455;-72
2024/01/25 06:13:17;;;;;;;30.17;16.67;;;;;;;-1.28;100.00;100653.69;5021100;28;20037;-72
2024/01/25 06:15:43;;;;;;;29.20;17.50;;;;;;;-1.27;100.00;100676.66;5026381;28;20041;-72
2024/01/25 06:18:08;;;;;;;32.07;18.37;;;;;;;-1.20;100.00;100660.31;5025346;28;20049;-71
2024/01/25 06:20:34;;;;;;;27.77;16.07;;;;;;;-1.11;100.00;100660.22;5026362;28;20029;-70
2024/01/25 06:22:59;;;;;;;27.87;16.63;;;;;;;-1.01;100.00;100681.44;5025850;28;20056;-71
2024/01/25 06:25:26;;;;;;;29.97;18.83;;;;;;;-0.88;100.00;100663.09;5026004;28;20163;-70
2024/01/25 06:27:52;;;;;;;33.93;18.10;;;;;;;-0.82;100.00;100676.28;5022801;28;20103;-75
2024/01/25 06:30:19;;;;;;;34.67;19.63;;;;;;;-1.16;100.00;100601.56;5022234;28;20757;-72
2024/01/25 06:32:45;;;;;;;31.53;16.90;;;;;;;-0.58;100.00;100701.97;5025101;28;20439;-74
2024/01/25 06:35:10;;;;;;;32.83;19.10;;;;;;;-0.85;100.00;100647.25;5025202;28;20050;-70
2024/01/25 06:37:36;;;;;;;28.10;18.10;;;;;;;-0.54;100.00;100693.84;5024738;28;20116;-71
2024/01/25 06:40:02;;;;;;;32.10;18.03;;;;;;;-0.68;100.00;100662.25;5028566;28;20543;-70
2024/01/25 06:42:27;;;;;;;35.37;17.43;;;;;;;-0.47;100.00;100694.38;5028733;28;20040;-70
2024/01/25 06:44:53;;;;;;;32.00;18.67;;;;;;;-0.82;100.00;100640.81;5028800;28;20026;-70
2024/01/25 06:47:18;;;;;;;32.77;18.90;;;;;;;-1.27;100.00;100549.09;5029032;28;20036;-73
2024/01/25 06:49:47;;;;;;;28.10;17.47;;;;;;;-0.83;100.00;100625.47;5026287;28;20056;-71
2024/01/25 06:52:13;;;;;;;32.22;17.30;;;;;;;-0.47;100.00;100674.06;5029196;28;20626;-71
2024/01/25 06:54:39;;;;;;;30.13;17.40;;;;;;;-0.28;100.00;100697.69;5029277;28;20407;-72
2024/01/25 06:57:05;;;;;;;31.00;17.80;;;;;;;-0.24;100.00;100689.56;5026360;28;20057;-74
2024/01/25 06:59:30;;;;;;;26.33;17.17;;;;;;;-0.19;100.00;100664.59;5029186;28;20565;-71
2024/01/25 07:04:55;;;;;;;27.13;14.83;;;;;;;-0.22;100.00;100679.56;5162563;23;20570;-70
2024/01/25 07:07:20;;;;;;;25.83;13.83;;;;;;;-0.23;100.00;100671.06;5029983;28;20096;-71
2024/01/25 07:09:46;;;;;;;22.93;13.93;;;;;;;-0.46;100.00;100633.66;5005572;28;20037;-72
2024/01/25 07:12:11;;;;;;;26.40;14.93;;;;;;;-0.24;100.00;100656.59;5029589;28;20032;-72
2024/01/25 07:17:39;;;;;;;26.47;14.33;;;;;;;-0.54;100.00;100582.25;5146563;22;20570;-72
2024/01/25 07:20:06;;;;;;;26.47;15.07;;;;;;;0.01;100.00;100658.63;5049340;28;20021;-72
2024/01/25 07:22:31;;;;;;;27.70;14.57;;;;;;;0.05;100.00;100662.28;5050347;28;20025;-72
2024/01/25 07:24:58;;;;;;;24.13;13.27;;;;;;;-0.18;100.00;100629.19;5050340;28;20034;-76
2024/01/25 07:27:24;;;;;;;28.53;17.10;;;;;;;0.14;100.00;100679.19;5051908;28;20541;-71
2024/01/25 07:29:50;;;;;;;25.27;14.87;;;;;;;0.15;100.00;100688.56;5052408;28;20098;-71
2024/01/25 07:32:16;;;;;;;28.33;16.87;;;;;;;0.24;100.00;100682.47;5052914;28;20071;-71
2024/01/25 07:34:42;;;;;;;23.77;13.33;;;;;;;0.31;100.00;100678.03;5052415;28;20087;-71
2024/01/25 07:37:07;;;;;;;28.07;17.30;;;;;;;0.32;100.00;100674.72;5052297;28;20514;-72
2024/01/25 07:39:33;;;;;;;27.37;15.07;;;;;;;0.31;100.00;100669.50;5052307;28;20089;-72
2024/01/25 07:41:59;;;;;;;28.67;16.50;;;;;;;0.29;100.00;100659.22;5052462;28;20108;-72
2024/01/25 07:44:24;;;;;;;27.83;16.77;;;;;;;-0.11;100.00;100576.41;5052507;28;20115;-73
2024/01/25 07:46:50;;;;;;;31.07;17.73;;;;;;;-0.04;100.00;100589.75;5052321;28;20033;-73
2024/01/25 07:49:15;;;;;;;28.67;17.53;;;;;;;0.26;100.00;100625.06;5052790;28;20024;-76
2024/01/25 07:51:41;;;;;;;31.27;18.17;;;;;;;0.10;100.00;100588.31;5052335;28;20507;-71
2024/01/25 07:54:06;;;;;;;27.23;16.10;;;;;;;0.79;100.00;100671.66;5051780;28;20040;-73
2024/01/25 07:56:32;;;;;;;28.10;16.60;;;;;;;0.78;100.00;100641.91;5051817;28;20044;-76
2024/01/25 07:58:59;;;;;;;26.03;15.03;;;;;;;0.60;100.00;100587.13;5051336;28;20438;-70
2024/01/25 08:01:25;;;;;;;31.73;16.87;;;;;;;0.74;100.00;100585.69;5051809;28;20040;-71
2024/01/25 08:03:50;;;;;;;26.02;14.73;;;;;;;1.24;100.00;100648.81;5051537;28;20107;-71
2024/01/25 08:06:16;;;;;;;28.13;15.23;;;;;;;1.50;100.00;100671.19;5052610;28;20056;-74
2024/01/25 08:08:41;;;;;;;24.05;13.88;;;;;;;1.69;100.00;100668.34;5051313;28;20040;-71
2024/01/25 08:11:08;;;;;;;24.67;14.23;;;;;;;1.84;100.00;100667.75;5047099;28;20060;-71
2024/01/25 08:13:33;;;;;;;23.83;14.45;;;;;;;1.77;100.00;100629.09;5051051;28;20037;-70
2024/01/25 08:15:59;;;;;;;22.70;14.38;;;;;;;2.18;100.00;100668.59;5051377;28;20073;-70
2024/01/25 08:18:27;;;;;;;23.38;14.00;;;;;;;2.41;100.00;100672.81;5051460;28;20033;-71
2024/01/25 08:20:52;;;;;;;21.83;13.93;;;;;;;2.56;100.00;100664.53;5051182;28;20490;-71
2024/01/25 08:23:18;;;;;;;21.40;13.38;;;;;;;2.70;100.00;100662.97;5049650;28;20036;-71
2024/01/25 08:25:44;;;;;;;22.85;13.05;;;;;;;2.84;100.00;100648.63;5051242;28;20051;-74
2024/01/25 08:28:10;;;;;;;27.63;18.95;;;;;;;2.79;100.00;100609.19;5051504;28;20029;-72
2024/01/25 08:30:36;;;;;;;24.73;15.10;;;;;;;3.14;100.00;100654.13;5050796;28;20025;-71
2024/01/25 08:33:03;;;;;;;42.80;25.58;;;;;;;3.16;100.00;100610.09;5031890;28;20127;-71
2024/01/25 08:35:30;;;;;;;28.95;16.98;;;;;;;3.53;100.00;100638.13;5050644;28;20064;-72
2024/01/25 08:37:55;;;;;;;40.78;27.80;;;;;;;3.75;100.00;100648.91;5051277;28;20060;-71
2024/01/25 08:40:21;;;;;;;40.92;25.33;;;;;;;4.05;100.00;100656.06;5051679;28;20064;-71
2024/01/25 08:42:47;;;;;;;19.95;13.48;;;;;;;4.04;100.00;100612.53;5046234;28;20488;-71
2024/01/25 08:45:13;;;;;;;15.05;8.63;;;;;;;4.77;100.00;100661.50;5049801;28;20056;-70
2024/01/25 08:47:39;;;;;;;15.05;9.48;;;;;;;5.00;100.00;100662.94;5051577;28;20032;-71
2024/01/25 08:50:24;;;;;;;11.65;7.70;;;;;;;5.33;100.00;100655.59;5049703;28;20025;-73
2024/01/25 08:52:50;;;;;;;12.13;7.30;;;;;;;5.47;100.00;100658.06;5047711;28;20049;-70
2024/01/25 08:55:15;;;;;;;12.13;6.88;;;;;;;5.82;100.00;100667.00;5048960;28;20037;-71
2024/01/25 08:57:41;;;;;;;11.50;7.22;;;;;;;5.97;100.00;100656.78;5047915;28;20045;-72
2024/01/25 09:00:10;;;;;;;11.70;6.30;;;;;;;6.02;100.00;100655.41;5047940;28;20541;-72
2024/01/25 09:02:36;;;;;;;10.80;6.17;;;;;;;6.35;100.00;100670.94;5048452;28;20041;-72
2024/01/25 09:05:03;;;;;;;11.77;5.53;;;;;;;6.24;100.00;100631.88;5039366;28;20040;-72
2024/01/25 09:07:29;;;;;;;11.18;6.13;;;;;;;6.41;100.00;100645.66;5047849;28;20052;-72
2024/01/25 09:09:54;;;;;;;10.73;5.80;;;;;;;6.66;100.00;100664.09;5047666;28;20037;-72
2024/01/25 09:12:20;;;;;;;7.85;5.05;;;;;;;6.86;100.00;100663.50;5047693;28;20036;-72
2024/01/25 09:14:45;;;;;;;7.65;4.65;;;;;;;6.97;100.00;100659.84;5048573;28;20517;-72
2024/01/25 09:17:11;;;;;;;7.95;4.45;;;;;;;6.50;100.00;100513.59;5047873;28;20162;-71
2024/01/25 09:19:36;;;;;;;8.07;4.63;;;;;;;7.37;100.00;100639.69;5047748;28;20044;-71
2024/01/25 09:22:04;;;;;;;8.50;4.93;;;;;;;7.33;100.00;100612.06;5048440;28;20574;-71
2024/01/25 09:24:33;;;;;;;8.02;3.67;;;;;;;7.76;100.00;100643.44;5049625;28;20047;-71
2024/01/25 09:26:59;;;;;;;7.88;3.97;;;;;;;7.77;100.00;100628.88;5049783;28;20506;-72
2024/01/25 09:29:24;;;;;;;9.45;4.63;;;;;;;8.05;100.00;100631.16;5049866;28;20487;-71
2024/01/25 09:31:50;;;;;;;9.38;4.28;;;;;;;8.11;100.00;100615.13;5050502;28;20031;-71
2024/01/25 09:34:16;;;;;;;9.05;4.80;;;;;;;8.17;100.00;100601.72;5049577;28;20041;-71
2024/01/25 09:36:41;;;;;;;7.18;3.45;;;;;;;8.19;100.00;100574.41;5049773;28;20056;-71
2024/01/25 09:39:08;;;;;;;8.73;3.80;;;;;;;8.71;100.00;100622.31;5049735;28;20134;-74
2024/01/25 09:41:33;;;;;;;6.65;3.53;;;;;;;8.87;100.00;100619.66;5050054;28;20487;-71
2024/01/25 09:44:00;;;;;;;7.53;3.95;;;;;;;8.95;100.00;100611.38;5050324;28;20040;-73
2024/01/25 09:46:27;;;;;;;9.85;3.25;;;;;;;8.92;100.00;100596.69;5049210;28;20037;-70
2024/01/25 09:48:53;;;;;;;6.40;3.38;;;;;;;9.26;100.00;100612.78;5049533;28;20123;-72
2024/01/25 09:51:18;;;;;;;5.10;2.28;;;;;;;9.49;100.00;100606.94;5049924;28;20577;-71
2024/01/25 09:53:48;;;;;;;3.63;1.70;;;;;;;9.80;100.00;100608.25;5049326;28;20106;-71
2024/01/25 09:56:17;;;;;;;3.80;1.90;;;;;;;9.99;100.00;100606.44;5049726;28;20043;-71
2024/01/25 09:58:45;;;;;;;6.07;2.00;;;;;;;10.07;100.00;100605.06;5044610;28;20033;-71
2024/01/25 10:01:15;;;;;;;4.25;1.60;;;;;;;10.23;100.00;100597.94;5048622;28;20094;-71
2024/01/25 10:03:47;;;;;;;5.78;2.17;;;;;;;10.37;100.00;100591.69;5049374;28;20091;-71
2024/01/25 10:06:15;;;;;;;5.43;2.08;;;;;;;10.47;100.00;100598.97;5049479;28;20029;-71
2024/01/25 10:08:40;;;;;;;4.05;1.70;;;;;;;10.09;100.00;100510.56;5049540;28;20449;-70
2024/01/25 10:11:08;;;;;;;3.65;1.60;;;;;;;10.50;100.00;100568.13;5049713;28;20032;-74
2024/01/25 10:14:00;;;;;;;6.38;1.88;;;;;;;10.67;100.00;100585.97;5049010;28;20029;-71
2024/01/25 10:16:26;;;;;;;6.60;2.22;;;;;;;10.70;100.00;100583.47;5049332;28;20049;-70
2024/01/25 10:18:52;;;;;;;3.33;1.40;;;;;;;10.66;100.00;100558.38;5049315;28;20037;-71
2024/01/25 10:21:18;;;;;;;4.32;1.52;;;;;;;10.68;100.00;100549.00;5049452;28;20028;-70
2024/01/25 10:23:48;;;;;;;4.25;1.67;;;;;;;10.97;100.00;100564.69;5049236;28;20083;-72
2024/01/25 10:26:14;;;;;;;3.83;1.55;;;;;;;11.06;100.00;100565.00;5047358;28;20060;-70
2024/01/25 10:28:40;;;;;;;3.75;1.60;;;;;;;10.99;100.00;100535.50;5047321;28;20025;-71
2024/01/25 10:31:07;;;;;;;6.93;2.63;;;;;;;10.96;100.00;100542.25;5047642;28;20492;-73
2024/01/25 10:33:33;;;;;;;1.52;1.02;;;;;;;10.71;100.00;100525.84;5046518;28;20025;-73
2024/01/25 10:36:03;;;;;;;4.78;1.80;;;;;;;11.02;100.00;100562.28;5049570;28;20017;-70
2024/01/25 10:38:34;;;;;;;8.75;1.83;;;;;;;11.05;100.00;100544.28;5047440;28;20049;-71
2024/01/25 10:41:01;;;;;;;5.60;2.67;;;;;;;11.21;100.00;100548.31;5065926;28;20503;-71
2024/01/25 10:43:27;;;;;;;6.65;2.22;;;;;;;11.38;100.00;100534.28;5066146;28;20491;-72
2024/01/25 10:45:55;;;;;;;8.38;2.42;;;;;;;11.08;100.00;100452.28;5065568;28;20615;-70
2024/01/25 10:48:21;;;;;;;6.15;1.77;;;;;;;11.24;97.59;100486.38;5069887;28;20038;-71
2024/01/25 10:50:48;;;;;;;2.92;1.38;;;;;;;11.60;97.06;100524.66;5070917;28;20044;-70
2024/01/25 10:53:16;;;;;;;4.05;1.20;;;;;;;11.54;96.26;100494.31;5070009;28;20036;-72
2024/01/25 10:55:42;;;;;;;4.00;1.83;;;;;;;11.74;95.44;100523.41;5070735;28;20418;-70
2024/01/25 10:58:11;;;;;;;3.45;1.40;;;;;;;11.81;93.80;100501.22;5069864;28;20032;-69
2024/01/25 11:00:36;;;;;;;4.75;1.80;;;;;;;11.90;92.81;100510.97;5067208;28;20087;-70
2024/01/25 11:03:05;;;;;;;7.00;1.85;;;;;;;12.04;93.28;100509.75;5069991;28;20105;-71
2024/01/25 11:05:31;;;;;;;3.03;1.52;;;;;;;11.74;92.31;100502.72;5050304;28;20048;-70
2024/01/25 11:07:57;;;;;;;8.30;1.55;;;;;;;11.70;93.23;100497.41;5069419;28;20040;-70